createdAt,value
2023-05-18T00:00:10.828Z,100331.84
2023-05-18T00:02:42.841Z,100330.97
2023-05-18T00:05:12.359Z,100331.00
2023-05-18T00:07:43.389Z,100338.03
2023-05-18T00:10:14.254Z,100336.34
2023-05-18T00:12:43.824Z,100333.81
2023-05-18T00:15:13.327Z,100337.34
2023-05-18T00:17:48.383Z,100333.97
2023-05-18T00:20:18.274Z,100341.84
2023-05-18T00:22:47.881Z,100343.69
2023-05-18T00:25:17.333Z,100342.03
2023-05-18T00:27:49.052Z,100342.06
2023-05-18T00:30:18.418Z,100342.91
2023-05-18T00:32:49.691Z,100337.72
2023-05-18T00:35:19.681Z,100341.19
2023-05-18T00:37:50.004Z,100342.94
2023-05-18T00:40:19.809Z,100342.03
2023-05-18T00:42:49.259Z,100342.03
2023-05-18T00:45:20.385Z,100316.25
2023-05-18T00:47:57.134Z,100340.34
2023-05-18T00:50:27.444Z,100334.34
2023-05-18T00:52:57.413Z,100337.84
2023-05-18T00:55:27.620Z,100332.66
2023-05-18T00:57:58.785Z,100337.81
2023-05-18T01:00:28.656Z,100331.75
2023-05-18T01:03:01.877Z,100343.88
2023-05-18T01:05:36.754Z,100341.31
2023-05-18T01:08:06.173Z,100341.34
2023-05-18T01:10:38.787Z,100340.53
2023-05-18T01:13:13.182Z,100336.19
2023-05-18T01:15:53.986Z,100343.06
2023-05-18T01:18:38.215Z,100337.88
2023-05-18T01:21:21.770Z,100345.66
2023-05-18T01:24:06.378Z,100339.63
2023-05-18T01:26:50.932Z,100339.66
2023-05-18T01:29:22.850Z,100339.63
2023-05-18T01:31:52.341Z,100332.66
2023-05-18T01:34:21.702Z,100336.91
2023-05-18T01:36:51.665Z,100342.06
2023-05-18T01:39:26.004Z,100338.59
2023-05-18T01:42:07.552Z,100336.81
2023-05-18T01:44:46.903Z,100335.00
2023-05-18T01:47:18.010Z,100336.75
2023-05-18T01:49:58.745Z,100337.53
2023-05-18T01:52:34.048Z,100340.13
2023-05-18T01:55:11.673Z,100340.06
2023-05-18T01:57:47.528Z,100352.09
2023-05-18T02:00:19.579Z,100349.47
2023-05-18T02:02:51.657Z,100325.28
2023-05-18T02:05:21.403Z,100344.94
2023-05-18T02:07:51.233Z,100342.19
2023-05-18T02:10:29.625Z,100340.44
2023-05-18T02:13:06.744Z,100344.66
2023-05-18T02:15:36.480Z,100348.06
2023-05-18T02:18:08.009Z,100345.38
2023-05-18T02:20:37.813Z,100349.50
2023-05-18T02:23:06.993Z,100352.13
2023-05-18T02:25:36.867Z,100348.69
2023-05-18T02:28:13.554Z,100355.53
2023-05-18T02:30:43.132Z,100350.31
2023-05-18T02:33:12.658Z,100352.72
2023-05-18T02:35:42.752Z,100340.59
2023-05-18T02:38:12.237Z,100349.94
2023-05-18T02:40:41.664Z,100348.06
2023-05-18T02:43:17.599Z,100357.50
2023-05-18T02:45:48.219Z,100347.09
2023-05-18T02:48:18.354Z,100351.34
2023-05-18T02:50:50.988Z,100356.47
2023-05-18T02:53:20.971Z,100351.22
2023-05-18T02:55:53.776Z,100353.75
2023-05-18T02:58:43.377Z,100345.81
2023-05-18T03:01:20.704Z,100351.72
2023-05-18T03:03:53.594Z,100351.59
2023-05-18T03:06:26.057Z,100353.22
2023-05-18T03:09:01.079Z,100354.75
2023-05-18T03:11:44.081Z,100358.91
2023-05-18T03:14:21.520Z,100363.03
2023-05-18T03:16:53.466Z,100351.50
2023-05-18T03:19:28.966Z,100353.84
2023-05-18T03:21:58.337Z,100351.13
2023-05-18T03:24:40.266Z,100364.06
2023-05-18T03:27:16.310Z,100356.16
2023-05-18T03:29:48.901Z,100366.44
2023-05-18T03:32:18.110Z,100359.97
2023-05-18T03:34:48.754Z,100363.81
2023-05-18T03:37:19.006Z,100355.19
2023-05-18T03:39:48.405Z,100362.81
2023-05-18T03:42:19.945Z,100363.94
2023-05-18T03:44:56.575Z,100359.47
2023-05-18T03:47:27.437Z,100355.94
2023-05-18T03:50:09.973Z,100363.22
2023-05-18T03:52:41.197Z,100367.97
2023-05-18T03:55:15.730Z,100360.66
2023-05-18T03:57:44.995Z,100363.25
2023-05-18T04:00:17.375Z,100364.75
2023-05-18T04:02:51.371Z,100362.84
2023-05-18T04:05:30.390Z,100363.34
2023-05-18T04:07:59.994Z,100364.00
2023-05-18T04:10:29.412Z,100362.78
2023-05-18T04:12:59.068Z,100358.38
2023-05-18T04:15:30.908Z,100372.88
2023-05-18T04:18:01.844Z,100356.47
2023-05-18T04:20:31.970Z,100358.50
2023-05-18T04:23:01.331Z,100361.47
2023-05-18T04:25:35.855Z,100357.41
2023-05-18T04:28:05.041Z,100361.25
2023-05-18T04:30:37.819Z,100365.69
2023-05-18T04:33:08.641Z,100361.72
2023-05-18T04:35:58.588Z,100364.03
2023-05-18T04:38:28.304Z,100362.63
2023-05-18T04:41:00.170Z,100366.19
2023-05-18T04:43:30.105Z,100368.50
2023-05-18T04:46:01.755Z,100362.13
2023-05-18T04:48:33.072Z,100353.34
2023-05-18T04:51:06.539Z,100358.34
2023-05-18T04:53:38.688Z,100354.25
2023-05-18T04:56:09.234Z,100356.34
2023-05-18T04:58:38.739Z,100349.09
2023-05-18T05:01:12.616Z,100353.09
2023-05-18T05:03:42.297Z,100343.97
2023-05-18T05:06:12.069Z,100347.06
2023-05-18T05:08:47.948Z,100345.78
2023-05-18T05:11:17.870Z,100344.78
2023-05-18T05:13:52.386Z,100340.31
2023-05-18T05:16:23.750Z,100344.63
2023-05-18T05:18:54.253Z,100350.53
2023-05-18T05:21:23.692Z,100346.06
2023-05-18T05:24:04.534Z,100344.44
2023-05-18T05:26:34.923Z,100353.25
2023-05-18T05:29:04.437Z,100352.38
2023-05-18T05:31:36.058Z,100356.56
2023-05-18T05:34:06.057Z,100351.16
2023-05-18T05:36:35.414Z,100339.19
2023-05-18T05:39:05.251Z,100350.25
2023-05-18T05:41:35.395Z,100351.91
2023-05-18T05:44:04.841Z,100357.84
2023-05-18T05:46:36.307Z,100350.78
2023-05-18T05:49:06.426Z,100348.63
2023-05-18T05:51:35.788Z,100353.69
2023-05-18T05:54:06.126Z,100345.59
2023-05-18T05:56:36.361Z,100358.59
2023-05-18T05:59:05.948Z,100347.91
2023-05-18T06:01:37.535Z,100350.34
2023-05-18T06:04:15.643Z,100346.66
2023-05-18T06:06:45.552Z,100345.75
2023-05-18T06:09:15.738Z,100348.09
2023-05-18T06:11:48.146Z,100344.31
2023-05-18T06:14:23.896Z,100346.63
2023-05-18T06:16:56.666Z,100339.50
2023-05-18T06:19:27.200Z,100340.84
2023-05-18T06:21:56.717Z,100334.44
2023-05-18T06:24:29.076Z,100337.84
2023-05-18T06:27:36.902Z,100337.38
2023-05-18T06:30:37.308Z,100341.50
2023-05-18T06:33:20.772Z,100341.28
2023-05-18T06:35:50.348Z,100332.44
2023-05-18T06:38:22.401Z,100336.31
2023-05-18T06:40:57.042Z,100313.94
2023-05-18T06:43:28.116Z,100327.94
2023-05-18T06:46:07.697Z,100320.66
2023-05-18T06:48:51.107Z,100330.06
2023-05-18T06:51:25.823Z,100328.13
2023-05-18T06:53:57.335Z,100327.81
2023-05-18T06:56:38.383Z,100330.81
2023-05-18T06:59:07.908Z,100337.56
2023-05-18T07:01:37.889Z,100335.44
2023-05-18T07:04:09.821Z,100331.88
2023-05-18T07:06:38.828Z,100337.28
2023-05-18T07:09:08.445Z,100332.91
2023-05-18T07:11:45.044Z,100336.19
2023-05-18T07:14:14.525Z,100327.31
2023-05-18T07:16:43.996Z,100328.19
2023-05-18T07:19:16.134Z,100336.25
2023-05-18T07:21:45.582Z,100337.66
2023-05-18T07:24:14.867Z,100328.22
2023-05-18T07:26:44.266Z,100339.84
2023-05-18T07:29:18.700Z,100333.84
2023-05-18T07:31:48.178Z,100332.41
2023-05-18T07:34:19.879Z,100332.56
2023-05-18T07:36:57.420Z,100330.19
2023-05-18T07:39:28.995Z,100329.66
2023-05-18T07:42:04.008Z,100317.38
2023-05-18T07:44:33.708Z,100330.03
2023-05-18T07:47:03.293Z,100336.00
2023-05-18T07:49:40.445Z,100328.00
2023-05-18T07:52:10.106Z,100317.09
2023-05-18T07:54:39.645Z,100330.75
2023-05-18T07:57:09.074Z,100334.78
2023-05-18T07:59:51.263Z,100340.66
2023-05-18T08:02:27.366Z,100326.50
2023-05-18T08:04:59.036Z,100335.22
2023-05-18T08:07:30.052Z,100329.41
2023-05-18T08:09:59.435Z,100332.56
2023-05-18T08:12:29.648Z,100333.94
2023-05-18T08:14:59.247Z,100335.84
2023-05-18T08:17:28.630Z,100326.66
2023-05-18T08:20:11.343Z,100328.03
2023-05-18T08:22:40.987Z,100300.41
2023-05-18T08:27:48.533Z,100323.53
2023-05-18T08:30:21.142Z,100322.75
2023-05-18T08:32:56.619Z,100322.19
2023-05-18T08:35:28.209Z,100322.09
2023-05-18T08:37:57.700Z,100325.66
2023-05-18T08:40:35.631Z,100315.44
2023-05-18T08:43:18.803Z,100318.84
2023-05-18T08:46:05.874Z,100321.13
2023-05-18T08:48:41.155Z,100317.94
2023-05-18T08:51:14.044Z,100317.06
2023-05-18T08:53:53.718Z,100312.28
2023-05-18T08:56:32.677Z,100320.22
2023-05-18T08:59:07.374Z,100312.56
2023-05-18T09:01:37.388Z,100303.22
2023-05-18T09:04:12.959Z,100316.03
2023-05-18T09:06:44.614Z,100316.03
2023-05-18T09:09:15.915Z,100306.25
2023-05-18T09:11:46.549Z,100287.84
2023-05-18T09:14:25.975Z,100298.91
2023-05-18T09:16:56.103Z,100298.09
2023-05-18T09:19:26.073Z,100276.09
2023-05-18T09:21:57.261Z,100293.47
2023-05-18T09:24:38.491Z,100298.44
2023-05-18T09:27:08.283Z,100302.28
2023-05-18T09:29:37.583Z,100283.84
2023-05-18T09:32:13.044Z,100285.22
2023-05-18T09:34:45.227Z,100299.34
2023-05-18T09:37:18.818Z,100297.00
2023-05-18T09:40:01.311Z,100294.75
2023-05-18T09:42:39.777Z,100290.72
2023-05-18T09:45:19.068Z,100284.38
2023-05-18T09:47:48.913Z,100275.69
2023-05-18T09:50:21.145Z,100258.13
2023-05-18T09:52:53.095Z,100276.94
2023-05-18T09:55:22.764Z,100274.38
2023-05-18T09:57:53.343Z,100277.94
2023-05-18T10:00:25.549Z,100277.03
2023-05-18T10:02:56.185Z,100267.88
2023-05-18T10:05:35.692Z,100274.53
2023-05-18T10:08:07.618Z,100269.44
2023-05-18T10:13:21.309Z,100260.03
2023-05-18T10:15:53.924Z,100253.63
2023-05-18T10:18:25.875Z,100257.72
2023-05-18T10:20:59.866Z,100259.81
2023-05-18T10:23:38.743Z,100253.91
2023-05-18T10:26:10.136Z,100261.47
2023-05-18T10:28:49.987Z,100259.03
2023-05-18T10:31:19.567Z,100245.16
2023-05-18T10:33:49.671Z,100247.72
2023-05-18T10:36:20.455Z,100249.88
2023-05-18T10:38:52.197Z,100248.59
2023-05-18T10:41:24.450Z,100251.47
2023-05-18T10:44:03.337Z,100247.25
2023-05-18T10:46:33.314Z,100246.88
2023-05-18T10:49:12.908Z,100242.75
2023-05-18T10:51:46.050Z,100242.88
2023-05-18T10:54:19.123Z,100252.00
2023-05-18T10:56:56.210Z,100239.31
2023-05-18T10:59:26.054Z,100238.63
2023-05-18T11:01:56.497Z,100238.09
2023-05-18T11:04:27.056Z,100233.63
2023-05-18T11:06:59.618Z,100238.91
2023-05-18T11:09:32.165Z,100225.53
2023-05-18T11:14:37.954Z,100229.25
2023-05-18T11:17:21.993Z,100220.88
2023-05-18T11:20:20.910Z,100217.56
2023-05-18T11:22:53.454Z,100223.91
2023-05-18T11:25:50.833Z,100218.44
2023-05-18T11:28:29.649Z,100214.28
2023-05-18T11:30:59.056Z,100208.88
2023-05-18T11:33:30.653Z,100202.44
2023-05-18T11:36:03.737Z,100207.75
2023-05-18T11:38:49.104Z,100210.72
2023-05-18T11:41:36.550Z,100214.47
2023-05-18T11:44:09.874Z,100211.00
2023-05-18T11:46:39.317Z,100203.16
2023-05-18T11:49:10.157Z,100205.69
2023-05-18T11:52:09.061Z,100193.31
2023-05-18T11:54:43.072Z,100184.06
2023-05-18T11:57:15.780Z,100199.56
2023-05-18T11:59:46.995Z,100193.09
2023-05-18T12:02:26.547Z,100187.59
2023-05-18T12:05:02.087Z,100193.84
2023-05-18T12:07:33.506Z,100188.00
2023-05-18T12:10:02.772Z,100185.91
2023-05-18T12:12:35.544Z,100186.72
2023-05-18T12:15:06.704Z,100185.47
2023-05-18T12:17:42.758Z,100185.69
2023-05-18T12:20:21.034Z,100183.78
2023-05-18T12:22:52.738Z,100175.53
2023-05-18T12:25:29.724Z,100163.56
2023-05-18T12:28:01.877Z,100171.06
2023-05-18T12:30:36.108Z,100174.03
2023-05-18T12:33:11.725Z,100173.38
2023-05-18T12:35:46.079Z,100176.03
2023-05-18T12:38:24.900Z,100170.00
2023-05-18T12:40:55.544Z,100161.47
2023-05-18T12:43:27.414Z,100182.28
2023-05-18T12:51:34.969Z,100162.84
2023-05-18T12:54:04.835Z,100154.47
2023-05-18T12:56:53.079Z,100167.06
2023-05-18T12:59:29.150Z,100163.50
2023-05-18T13:01:58.854Z,100158.16
2023-05-18T13:04:36.180Z,100159.03
2023-05-18T13:07:07.586Z,100156.72
2023-05-18T13:09:36.939Z,100159.03
2023-05-18T13:12:07.718Z,100152.25
2023-05-18T13:14:43.452Z,100161.91
2023-05-18T13:17:24.665Z,100156.16
2023-05-18T13:19:59.726Z,100159.75
2023-05-18T13:22:30.962Z,100167.28
2023-05-18T13:25:00.360Z,100163.13
2023-05-18T13:27:31.235Z,100157.28
2023-05-18T13:30:00.572Z,100160.44
2023-05-18T13:32:30.017Z,100151.75
2023-05-18T13:34:59.438Z,100163.41
2023-05-18T13:37:30.962Z,100157.38
2023-05-18T13:40:00.275Z,100166.06
2023-05-18T13:42:34.829Z,100160.66
2023-05-18T13:45:04.198Z,100159.19
2023-05-18T13:47:33.580Z,100160.69
2023-05-18T13:50:02.766Z,100156.78
2023-05-18T13:52:34.345Z,100155.13
2023-05-18T13:55:10.685Z,100164.22
2023-05-18T13:57:41.771Z,100161.03
2023-05-18T14:00:13.459Z,100160.94
2023-05-18T14:02:43.403Z,100153.75
2023-05-18T14:05:13.693Z,100152.88
2023-05-18T14:07:45.517Z,100144.91
2023-05-18T14:10:15.478Z,100142.28
2023-05-18T14:12:44.594Z,100143.44
2023-05-18T14:15:15.341Z,100145.03
2023-05-18T14:17:45.185Z,100148.22
2023-05-18T14:20:14.921Z,100148.41
2023-05-18T14:22:46.208Z,100146.81
2023-05-18T14:25:15.224Z,100139.44
2023-05-18T14:27:46.505Z,100139.75
2023-05-18T14:30:15.693Z,100146.13
2023-05-18T14:32:44.969Z,100132.34
2023-05-18T14:35:14.322Z,100128.00
2023-05-18T14:40:25.036Z,100131.69
2023-05-18T14:42:54.216Z,100139.00
2023-05-18T14:45:23.701Z,100133.94
2023-05-18T14:47:53.098Z,100133.94
2023-05-18T14:50:23.091Z,100131.78
2023-05-18T14:52:54.673Z,100130.63
2023-05-18T14:55:24.599Z,100130.41
2023-05-18T14:57:53.798Z,100120.16
2023-05-18T15:00:23.838Z,100122.34
2023-05-18T15:02:53.076Z,100111.97
2023-05-18T15:05:22.544Z,100119.19
2023-05-18T15:08:03.853Z,100118.97
2023-05-18T15:10:33.279Z,100118.44
2023-05-18T15:13:02.749Z,100127.13
2023-05-18T15:15:32.242Z,100118.34
2023-05-18T15:18:01.563Z,100125.44
2023-05-18T15:20:36.797Z,100116.84
2023-05-18T15:23:08.886Z,100118.00
2023-05-18T15:25:54.442Z,100128.94
2023-05-18T15:28:23.691Z,100116.75
2023-05-18T15:30:54.122Z,100116.53
2023-05-18T15:33:28.693Z,100112.28
2023-05-18T15:36:03.003Z,100119.59
2023-05-18T15:38:34.086Z,100122.47
2023-05-18T15:41:03.521Z,100119.59
2023-05-18T15:43:33.380Z,100109.94
2023-05-18T15:46:02.789Z,100120.88
2023-05-18T15:48:32.690Z,100131.97
2023-05-18T15:51:02.064Z,100128.06
2023-05-18T15:53:31.480Z,100129.44
2023-05-18T15:56:07.907Z,100136.09
2023-05-18T15:58:37.531Z,100136.91
2023-05-18T16:01:07.043Z,100139.31
2023-05-18T16:03:42.910Z,100151.81
2023-05-18T16:06:12.661Z,100148.44
2023-05-18T16:08:41.954Z,100157.81
2023-05-18T16:11:18.081Z,100135.97
2023-05-18T16:13:49.774Z,100163.03
2023-05-18T16:16:19.402Z,100167.19
2023-05-18T16:18:49.550Z,100165.69
2023-05-18T16:21:19.998Z,100151.03
2023-05-18T16:23:56.168Z,100174.38
2023-05-18T16:26:28.018Z,100170.59
2023-05-18T16:28:57.377Z,100179.56
2023-05-18T16:31:27.926Z,100181.28
2023-05-18T16:33:57.267Z,100194.75
2023-05-18T16:36:26.710Z,100193.59
2023-05-18T16:38:56.073Z,100181.00
2023-05-18T16:41:38.199Z,100191.88
2023-05-18T16:44:07.801Z,100215.31
2023-05-18T16:46:37.169Z,100220.00
2023-05-18T16:51:42.047Z,100215.47
2023-05-18T16:54:11.759Z,100210.00
2023-05-18T16:56:43.144Z,100233.78
2023-05-18T16:59:12.544Z,100245.59
2023-05-18T17:01:48.183Z,100229.44
2023-05-18T17:04:17.757Z,100238.78
2023-05-18T17:06:54.148Z,100245.66
2023-05-18T17:09:23.819Z,100223.41
2023-05-18T17:12:00.105Z,100254.31
2023-05-18T17:14:29.450Z,100243.19
2023-05-18T17:16:58.644Z,100239.28
2023-05-18T17:19:33.078Z,100242.44
2023-05-18T17:22:02.455Z,100262.31
2023-05-18T17:24:36.948Z,100260.09
2023-05-18T17:27:08.663Z,100263.97
2023-05-18T17:29:49.216Z,100268.63
2023-05-18T17:32:18.482Z,100267.25
2023-05-18T17:34:47.653Z,100259.66
2023-05-18T17:37:19.013Z,100261.44
2023-05-18T17:39:48.234Z,100260.22
2023-05-18T17:42:21.317Z,100264.78
2023-05-18T17:44:51.286Z,100256.97
2023-05-18T17:47:31.284Z,100269.69
2023-05-18T17:50:00.976Z,100271.72
2023-05-18T17:52:30.228Z,100245.84
2023-05-18T17:55:04.601Z,100275.03
2023-05-18T17:57:35.982Z,100273.53
2023-05-18T18:00:06.862Z,100281.22
2023-05-18T18:02:41.017Z,100280.84
2023-05-18T18:05:16.128Z,100281.34
2023-05-18T18:07:50.657Z,100285.25
2023-05-18T18:10:20.682Z,100289.13
2023-05-18T18:12:52.050Z,100277.81
2023-05-18T18:15:28.796Z,100288.28
2023-05-18T18:17:58.167Z,100291.63
2023-05-18T18:20:28.771Z,100297.06
2023-05-18T18:25:33.683Z,100303.50
2023-05-18T18:28:05.051Z,100298.22
2023-05-18T18:30:34.493Z,100303.38
2023-05-18T18:33:03.798Z,100291.00
2023-05-18T18:35:33.348Z,100300.53
2023-05-18T18:38:03.749Z,100307.59
2023-05-18T18:40:33.574Z,100311.81
2023-05-18T18:43:05.305Z,100323.50
2023-05-18T18:45:40.756Z,100296.56
2023-05-18T18:50:51.064Z,100305.59
2023-05-18T18:53:21.544Z,100315.41
2023-05-18T18:55:51.297Z,100310.28
2023-05-18T18:58:24.125Z,100320.88
2023-05-18T19:00:54.169Z,100318.47
2023-05-18T19:03:29.141Z,100312.56
2023-05-18T19:05:58.729Z,100315.50
2023-05-18T19:08:28.249Z,100322.84
2023-05-18T19:11:02.810Z,100324.91
2023-05-18T19:13:34.280Z,100310.50
2023-05-18T19:16:04.057Z,100326.31
2023-05-18T19:18:33.917Z,100326.50
2023-05-18T19:21:03.543Z,100321.22
2023-05-18T19:23:32.800Z,100331.69
2023-05-18T19:26:02.107Z,100337.22
2023-05-18T19:28:31.429Z,100335.97
2023-05-18T19:31:03.841Z,100346.66
2023-05-18T19:33:33.975Z,100329.38
2023-05-18T19:36:03.471Z,100343.41
2023-05-18T19:38:32.871Z,100351.38
2023-05-18T19:41:02.372Z,100351.59
2023-05-18T19:43:31.822Z,100352.47
2023-05-18T19:46:03.348Z,100350.19
2023-05-18T19:48:33.058Z,100348.09
2023-05-18T19:51:06.673Z,100346.84
2023-05-18T19:53:36.266Z,100340.56
2023-05-18T19:56:05.882Z,100351.75
2023-05-18T19:58:45.426Z,100346.72
2023-05-18T20:01:18.339Z,100349.25
2023-05-18T20:03:49.520Z,100365.19
2023-05-18T20:06:19.237Z,100354.09
2023-05-18T20:08:48.807Z,100359.44
2023-05-18T20:11:29.725Z,100357.75
2023-05-18T20:13:59.353Z,100362.09
2023-05-18T20:16:33.568Z,100360.47
2023-05-18T20:19:09.208Z,100354.50
2023-05-18T20:21:40.248Z,100359.72
2023-05-18T20:24:09.788Z,100341.78
2023-05-18T20:26:39.204Z,100366.75
2023-05-18T20:29:14.060Z,100363.28
2023-05-18T20:31:45.453Z,100363.34
2023-05-18T20:34:20.305Z,100361.34
2023-05-18T20:36:49.866Z,100365.13
2023-05-18T20:39:19.350Z,100364.44
2023-05-18T20:41:54.117Z,100359.31
2023-05-18T20:44:27.429Z,100364.56
2023-05-18T20:47:00.767Z,100355.16
2023-05-18T20:49:30.287Z,100364.88
2023-05-18T20:51:59.771Z,100371.88
2023-05-18T20:54:29.335Z,100366.69
2023-05-18T20:56:59.686Z,100368.38
2023-05-18T20:59:35.710Z,100365.09
2023-05-18T21:02:07.743Z,100364.28
2023-05-18T21:04:37.413Z,100371.19
2023-05-18T21:07:09.547Z,100372.19
2023-05-18T21:09:38.940Z,100367.97
2023-05-18T21:12:09.252Z,100374.94
2023-05-18T21:14:43.867Z,100366.34
2023-05-18T21:17:15.625Z,100375.03
2023-05-18T21:19:52.032Z,100372.66
2023-05-18T21:22:21.435Z,100374.31
2023-05-18T21:24:50.800Z,100369.31
2023-05-18T21:27:20.284Z,100370.94
2023-05-18T21:29:49.572Z,100385.00
2023-05-18T21:32:21.010Z,100379.97
2023-05-18T21:34:50.646Z,100374.84
2023-05-18T21:37:20.041Z,100383.63
2023-05-18T21:39:54.604Z,100386.19
2023-05-18T21:42:28.991Z,100381.97
2023-05-18T21:44:58.365Z,100378.69
2023-05-18T21:47:29.800Z,100373.59
2023-05-18T21:52:45.226Z,100382.25
2023-05-18T21:55:14.634Z,100378.03
2023-05-18T21:57:44.511Z,100372.84
2023-05-18T22:00:17.702Z,100376.38
2023-05-18T22:02:49.006Z,100377.34
2023-05-18T22:05:18.510Z,100382.47
2023-05-18T22:07:48.084Z,100380.06
2023-05-18T22:10:31.099Z,100380.06
2023-05-18T22:13:05.992Z,100375.81
2023-05-18T22:15:37.084Z,100376.63
2023-05-18T22:18:19.227Z,100380.13
2023-05-18T22:20:49.382Z,100368.88
2023-05-18T22:23:18.660Z,100377.59
2023-05-18T22:28:32.882Z,100367.16
2023-05-18T22:31:02.696Z,100372.31
2023-05-18T22:33:39.535Z,100373.09
2023-05-18T22:36:09.281Z,100378.28
2023-05-18T22:38:42.820Z,100375.47
2023-05-18T22:41:12.148Z,100385.00
2023-05-18T22:43:41.429Z,100376.31
2023-05-18T22:46:10.964Z,100379.72
2023-05-18T22:48:42.447Z,100368.63
2023-05-18T22:53:47.006Z,100378.91
2023-05-18T22:56:20.693Z,100378.88
2023-05-18T22:58:56.174Z,100382.34
2023-05-18T23:01:25.510Z,100373.66
2023-05-18T23:03:57.262Z,100384.78
2023-05-18T23:06:26.321Z,100377.59
2023-05-18T23:08:55.537Z,100375.91
2023-05-18T23:11:34.656Z,100378.50
2023-05-18T23:14:04.062Z,100379.50
2023-05-18T23:16:33.994Z,100367.38
2023-05-18T23:19:05.434Z,100369.09
2023-05-18T23:21:40.504Z,100379.50
2023-05-18T23:26:46.855Z,100376.09
2023-05-18T23:29:16.293Z,100377.84
2023-05-18T23:31:45.864Z,100377.81
2023-05-18T23:34:17.675Z,100393.34
2023-05-18T23:36:52.992Z,100382.81
2023-05-18T23:39:29.069Z,100387.88
2023-05-18T23:42:06.014Z,100387.75
2023-05-18T23:44:36.188Z,100379.75
2023-05-18T23:47:16.817Z,100374.47
2023-05-18T23:49:54.673Z,100379.59
2023-05-18T23:52:27.455Z,100369.06
2023-05-18T23:54:58.365Z,100378.66
2023-05-18T23:57:28.406Z,100379.44
2023-05-18T23:59:58.141Z,100377.56
